createdAt,value
2018-07-17T00:01:46.369Z,98995.23
2018-07-17T00:04:14.675Z,98992.88
2018-07-17T00:06:42.809Z,98994.04
2018-07-17T00:09:11.180Z,98989.90
2018-07-17T00:11:39.410Z,98991.37
2018-07-17T00:14:07.936Z,98999.42
2018-07-17T00:16:36.225Z,98995.91
2018-07-17T00:19:04.462Z,98993.52
2018-07-17T00:21:32.670Z,98992.64
2018-07-17T00:24:01.042Z,98995.81
2018-07-17T00:26:29.253Z,98991.38
2018-07-17T00:28:57.493Z,98987.99
2018-07-17T00:31:25.770Z,98989.68
2018-07-17T00:33:54.179Z,98996.83
2018-07-17T00:36:22.422Z,98992.20
2018-07-17T00:38:50.703Z,98986.98
2018-07-17T00:41:19.080Z,98986.09
2018-07-17T00:43:47.394Z,98984.53
2018-07-17T00:46:15.837Z,98977.32
2018-07-17T00:48:44.215Z,98974.91
2018-07-17T00:51:12.522Z,98974.91
2018-07-17T00:53:40.870Z,98972.83
2018-07-17T00:56:09.137Z,98974.39
2018-07-17T00:58:37.140Z,98970.58
2018-07-17T01:01:04.921Z,98962.30
2018-07-17T01:03:38.667Z,98957.20
2018-07-17T01:06:12.498Z,98955.70
2018-07-17T01:08:46.273Z,98949.90
2018-07-17T01:11:20.020Z,98942.89
2018-07-17T01:14:06.936Z,98939.69
2018-07-17T01:16:35.129Z,98940.82
2018-07-17T01:19:03.506Z,98938.61
2018-07-17T01:21:31.840Z,98942.98
2018-07-17T01:24:00.312Z,98936.95
2018-07-17T01:26:28.802Z,98932.81
2018-07-17T01:28:57.176Z,98934.01
2018-07-17T01:31:25.654Z,98930.64
2018-07-17T01:33:53.974Z,98930.66
2018-07-17T01:36:22.202Z,98939.05
2018-07-17T01:38:50.481Z,98940.44
2018-07-17T01:41:18.800Z,98953.65
2018-07-17T01:43:47.242Z,98950.86
2018-07-17T01:46:15.492Z,98952.72
2018-07-17T01:48:43.582Z,98953.69
2018-07-17T01:51:11.899Z,98950.34
2018-07-17T01:53:40.126Z,98952.36
2018-07-17T01:56:08.205Z,98961.05
2018-07-17T01:58:36.613Z,98962.03
2018-07-17T02:01:04.754Z,98968.86
2018-07-17T02:03:32.601Z,98970.05
2018-07-17T02:06:00.892Z,98978.95
2018-07-17T02:08:29.153Z,98973.30
2018-07-17T02:10:57.243Z,98985.48
2018-07-17T02:13:25.513Z,98980.70
2018-07-17T02:15:53.882Z,98977.41
2018-07-17T02:18:22.070Z,98977.90
2018-07-17T02:20:50.332Z,98988.30
2018-07-17T02:23:18.548Z,98985.98
2018-07-17T02:25:46.781Z,98985.50
2018-07-17T02:28:15.057Z,98994.61
2018-07-17T02:30:43.478Z,98997.47
2018-07-17T02:33:11.613Z,99001.73
2018-07-17T02:35:39.769Z,98998.75
2018-07-17T02:38:08.206Z,98999.67
2018-07-17T02:40:36.328Z,98995.60
2018-07-17T02:43:04.704Z,99002.37
2018-07-17T02:45:33.020Z,98999.78
2018-07-17T02:48:01.233Z,98990.62
2018-07-17T02:50:29.537Z,98978.09
2018-07-17T02:52:57.854Z,98976.26
2018-07-17T02:55:26.302Z,98965.33
2018-07-17T02:57:54.566Z,98952.69
2018-07-17T03:00:22.870Z,98953.06
2018-07-17T03:02:51.321Z,98952.75
2018-07-17T03:05:19.490Z,98949.09
2018-07-17T03:07:47.725Z,98952.09
2018-07-17T03:10:16.253Z,98953.48
2018-07-17T03:12:44.145Z,98954.14
2018-07-17T03:15:12.550Z,98955.03
2018-07-17T03:17:40.973Z,98960.91
2018-07-17T03:20:09.149Z,98960.88
2018-07-17T03:22:37.524Z,98963.14
2018-07-17T03:25:05.986Z,98959.85
2018-07-17T03:27:34.281Z,98960.95
2018-07-17T03:30:02.725Z,98962.36
2018-07-17T03:32:30.938Z,98958.11
2018-07-17T03:34:59.213Z,98954.98
2018-07-17T03:37:27.643Z,98952.98
2018-07-17T03:39:55.857Z,98951.46
2018-07-17T03:42:24.250Z,98954.84
2018-07-17T03:44:52.576Z,98961.16
2018-07-17T03:47:20.689Z,98957.37
2018-07-17T03:49:49.064Z,98959.68
2018-07-17T03:52:17.419Z,98958.95
2018-07-17T03:54:45.820Z,98957.37
2018-07-17T03:57:14.089Z,98951.28
2018-07-17T03:59:42.373Z,98958.88
2018-07-17T04:02:10.763Z,98955.78
2018-07-17T04:04:39.062Z,98959.17
2018-07-17T04:07:06.953Z,98949.36
2018-07-17T04:09:35.179Z,98953.38
2018-07-17T04:12:03.358Z,98944.95
2018-07-17T04:14:31.301Z,98948.02
2018-07-17T04:16:59.681Z,98952.13
2018-07-17T04:19:27.997Z,98940.09
2018-07-17T04:21:56.273Z,98939.63
2018-07-17T04:24:24.573Z,98947.30
2018-07-17T04:26:53.301Z,98942.94
2018-07-17T04:29:21.434Z,98944.02
2018-07-17T04:31:49.933Z,98949.19
2018-07-17T04:34:18.236Z,98946.94
2018-07-17T04:36:46.540Z,98956.23
2018-07-17T04:39:14.791Z,98956.44
2018-07-17T04:41:43.057Z,98961.34
2018-07-17T04:44:11.586Z,98968.91
2018-07-17T04:46:39.910Z,98969.59
2018-07-17T04:49:08.302Z,98961.06
2018-07-17T04:51:36.628Z,98961.40
2018-07-17T04:54:05.054Z,98959.75
2018-07-17T04:56:33.233Z,98955.02
2018-07-17T04:59:01.744Z,98953.70
2018-07-17T05:01:30.340Z,98955.85
2018-07-17T05:03:58.670Z,98958.88
2018-07-17T05:06:26.869Z,98959.53
2018-07-17T05:08:55.109Z,98959.75
2018-07-17T05:11:23.486Z,98964.09
2018-07-17T05:13:51.801Z,98956.72
2018-07-17T05:16:20.140Z,98951.86
2018-07-17T05:18:48.518Z,98949.51
2018-07-17T05:21:16.938Z,98945.98
2018-07-17T05:23:45.066Z,98948.13
2018-07-17T05:26:13.340Z,98943.59
2018-07-17T05:28:41.652Z,98944.27
2018-07-17T05:31:09.902Z,98943.23
2018-07-17T05:33:38.265Z,98935.82
2018-07-17T05:36:06.894Z,98934.06
2018-07-17T05:38:34.725Z,98925.95
2018-07-17T05:41:03.000Z,98922.36
2018-07-17T05:43:31.276Z,98926.43
2018-07-17T05:45:59.562Z,98932.83
2018-07-17T05:48:27.957Z,98921.70
2018-07-17T05:50:56.107Z,98910.87
2018-07-17T05:53:24.390Z,98909.58
2018-07-17T05:55:52.886Z,98914.34
2018-07-17T05:58:21.161Z,98899.44
2018-07-17T06:00:49.401Z,98901.15
2018-07-17T06:03:17.793Z,98905.51
2018-07-17T06:05:46.053Z,98900.27
2018-07-17T06:08:14.229Z,98898.85
2018-07-17T06:10:42.627Z,98899.92
2018-07-17T06:13:10.881Z,98907.36
2018-07-17T06:15:39.252Z,98901.61
2018-07-17T06:18:07.540Z,98896.59
2018-07-17T06:20:35.801Z,98898.03
2018-07-17T06:23:04.213Z,98888.02
2018-07-17T06:25:32.468Z,98884.58
2018-07-17T06:28:00.744Z,98882.94
2018-07-17T06:30:29.018Z,98886.72
2018-07-17T06:32:57.389Z,98882.17
2018-07-17T06:35:25.773Z,98879.52
2018-07-17T06:37:54.037Z,98886.02
2018-07-17T06:40:22.426Z,98885.48
2018-07-17T06:42:50.825Z,98875.17
2018-07-17T06:45:19.291Z,98875.13
2018-07-17T06:47:47.570Z,98882.39
2018-07-17T06:50:16.051Z,98888.88
2018-07-17T06:52:44.189Z,98883.95
2018-07-17T06:55:12.606Z,98877.39
2018-07-17T06:57:40.974Z,98871.54
2018-07-17T07:00:09.445Z,98870.27
2018-07-17T07:02:37.618Z,98871.27
2018-07-17T07:05:06.006Z,98870.91
2018-07-17T07:07:34.282Z,98875.72
2018-07-17T07:10:02.153Z,98868.62
2018-07-17T07:12:30.617Z,98875.64
2018-07-17T07:14:58.998Z,98880.61
2018-07-17T07:17:27.187Z,98873.98
2018-07-17T07:19:55.466Z,98877.06
2018-07-17T07:22:23.937Z,98878.30
2018-07-17T07:24:52.310Z,98868.36
2018-07-17T07:27:20.794Z,98864.16
2018-07-17T07:29:49.167Z,98858.75
2018-07-17T07:32:17.453Z,98855.59
2018-07-17T07:34:45.822Z,98855.03
2018-07-17T07:37:14.140Z,98855.05
2018-07-17T07:39:42.342Z,98852.73
2018-07-17T07:42:10.745Z,98844.23
2018-07-17T07:44:39.113Z,98852.81
2018-07-17T07:47:07.621Z,98843.03
2018-07-17T07:49:35.781Z,98847.84
2018-07-17T07:52:04.158Z,98844.64
2018-07-17T07:54:32.325Z,98841.71
2018-07-17T07:57:00.507Z,98838.48
2018-07-17T07:59:28.875Z,98841.18
2018-07-17T08:01:57.038Z,98848.59
2018-07-17T08:04:25.076Z,98844.63
2018-07-17T08:06:53.403Z,98832.66
2018-07-17T08:09:21.674Z,98834.77
2018-07-17T08:11:49.777Z,98829.55
2018-07-17T08:14:18.121Z,98833.08
2018-07-17T08:16:46.609Z,98820.20
2018-07-17T08:19:14.870Z,98825.79
2018-07-17T08:21:43.367Z,98814.56
2018-07-17T08:24:11.770Z,98825.91
2018-07-17T08:26:40.223Z,98828.72
2018-07-17T08:29:08.402Z,98832.22
2018-07-17T08:31:36.887Z,98823.10
2018-07-17T08:34:05.240Z,98820.61
2018-07-17T08:36:33.664Z,98817.26
2018-07-17T08:39:02.002Z,98813.85
2018-07-17T08:41:30.390Z,98818.83
2018-07-17T08:43:58.662Z,98820.77
2018-07-17T08:46:27.132Z,98812.78
2018-07-17T08:48:55.410Z,98815.17
2018-07-17T08:51:23.697Z,98811.34
2018-07-17T08:53:52.069Z,98809.05
2018-07-17T08:56:20.448Z,98804.91
2018-07-17T08:58:48.722Z,98804.59
2018-07-17T09:01:17.246Z,98807.38
2018-07-17T09:03:45.574Z,98806.63
2018-07-17T09:06:13.745Z,98803.09
2018-07-17T09:08:42.021Z,98795.67
2018-07-17T09:11:10.300Z,98798.74
2018-07-17T09:13:38.582Z,98793.84
2018-07-17T09:16:07.052Z,98800.52
2018-07-17T09:18:36.159Z,98789.03
2018-07-17T09:21:04.459Z,98788.98
2018-07-17T09:23:32.909Z,98793.94
2018-07-17T09:26:01.069Z,98787.75
2018-07-17T09:31:11.649Z,98787.88
2018-07-17T09:33:39.989Z,98783.80
2018-07-17T09:36:08.019Z,98785.23
2018-07-17T09:38:36.278Z,98782.92
2018-07-17T09:41:04.558Z,98785.02
2018-07-17T09:43:32.937Z,98785.48
2018-07-17T09:46:01.215Z,98782.66
2018-07-17T09:48:29.490Z,98790.22
2018-07-17T09:50:57.957Z,98786.70
2018-07-17T09:53:26.151Z,98771.47
2018-07-17T09:55:54.424Z,98774.16
2018-07-17T09:58:22.701Z,98774.56
2018-07-17T10:00:56.445Z,98776.38
2018-07-17T10:03:24.668Z,98774.05
2018-07-17T10:05:52.850Z,98778.83
2018-07-17T10:08:21.222Z,98779.38
2018-07-17T10:10:49.689Z,98780.61
2018-07-17T10:13:18.087Z,98786.23
2018-07-17T10:15:46.478Z,98776.66
2018-07-17T10:18:14.837Z,98779.09
2018-07-17T10:20:43.018Z,98775.76
2018-07-17T10:23:11.391Z,98774.93
2018-07-17T10:25:39.560Z,98775.77
2018-07-17T10:28:07.838Z,98778.80
2018-07-17T10:30:36.101Z,98770.84
2018-07-17T10:33:04.489Z,98779.46
2018-07-17T10:35:32.765Z,98850.62
2018-07-17T10:38:01.038Z,98843.55
2018-07-17T10:40:29.408Z,98857.53
2018-07-17T10:42:57.566Z,98834.52
2018-07-17T10:45:26.069Z,98867.58
2018-07-17T10:47:54.555Z,98865.92
2018-07-17T10:50:22.826Z,98877.73
2018-07-17T10:52:51.088Z,98902.64
2018-07-17T10:55:19.474Z,98919.55
2018-07-17T10:57:47.878Z,98934.19
2018-07-17T11:00:16.029Z,98943.16
2018-07-17T11:02:44.401Z,98945.55
2018-07-17T11:05:12.693Z,98956.16
2018-07-17T11:07:41.066Z,98934.93
2018-07-17T11:10:09.304Z,98931.88
2018-07-17T11:12:37.605Z,98916.55
2018-07-17T11:15:05.991Z,98910.53
2018-07-17T11:17:34.369Z,98898.80
2018-07-17T11:20:02.651Z,98898.32
2018-07-17T11:22:30.793Z,98894.09
2018-07-17T11:24:59.191Z,98886.27
2018-07-17T11:27:27.370Z,98875.33
2018-07-17T11:29:55.648Z,98870.12
2018-07-17T11:32:24.021Z,98872.86
2018-07-17T11:34:52.289Z,98866.36
2018-07-17T11:37:20.675Z,98860.77
2018-07-17T11:39:48.923Z,98844.30
2018-07-17T11:42:17.476Z,98837.70
2018-07-17T11:44:45.605Z,98824.77
2018-07-17T11:47:13.882Z,98818.91
2018-07-17T11:49:42.206Z,98826.27
2018-07-17T11:52:10.079Z,98836.08
2018-07-17T11:54:38.502Z,98853.61
2018-07-17T11:57:06.886Z,98847.21
2018-07-17T11:59:35.313Z,98846.40
2018-07-17T12:02:03.891Z,98849.09
2018-07-17T12:04:32.210Z,98854.52
2018-07-17T12:07:00.486Z,98862.97
2018-07-17T12:09:28.801Z,98882.82
2018-07-17T12:11:57.137Z,98876.93
2018-07-17T12:14:25.517Z,98871.02
2018-07-17T12:16:53.789Z,98864.81
2018-07-17T12:19:22.045Z,98860.53
2018-07-17T12:21:50.450Z,98868.53
2018-07-17T12:24:18.729Z,98869.88
2018-07-17T12:26:47.106Z,98862.27
2018-07-17T12:29:15.378Z,98866.39
2018-07-17T12:31:43.849Z,98866.03
2018-07-17T12:34:12.246Z,98869.03
2018-07-17T12:36:40.503Z,98866.02
2018-07-17T12:39:10.361Z,98854.84
2018-07-17T12:41:38.699Z,98851.70
2018-07-17T12:44:06.964Z,98853.22
2018-07-17T12:46:35.023Z,98862.82
2018-07-17T12:49:03.454Z,98869.76
2018-07-17T12:51:31.905Z,98871.12
2018-07-17T12:54:00.342Z,98869.18
2018-07-17T12:56:28.766Z,98862.48
2018-07-17T12:58:57.017Z,98853.83
2018-07-17T13:01:25.036Z,98846.08
2018-07-17T13:03:53.490Z,98841.73
2018-07-17T13:06:21.766Z,98827.23
2018-07-17T13:08:49.745Z,98820.95
2018-07-17T13:11:18.248Z,98827.30
2018-07-17T13:13:46.581Z,98828.69
2018-07-17T13:16:14.618Z,98830.94
2018-07-17T13:18:42.937Z,98834.03
2018-07-17T13:21:11.313Z,98842.75
2018-07-17T13:23:39.609Z,98844.14
2018-07-17T13:26:07.973Z,98842.30
2018-07-17T13:28:36.324Z,98834.73
2018-07-17T13:31:04.722Z,98824.34
2018-07-17T13:33:33.010Z,98819.92
2018-07-17T13:36:01.274Z,98816.81
2018-07-17T13:38:29.542Z,98812.64
2018-07-17T13:40:57.820Z,98800.60
2018-07-17T13:43:26.201Z,98793.38
2018-07-17T13:45:54.581Z,98795.92
2018-07-17T13:48:22.746Z,98796.84
2018-07-17T13:50:51.035Z,98798.38
2018-07-17T13:53:19.308Z,98806.45
2018-07-17T13:55:47.462Z,98809.52
2018-07-17T13:58:15.852Z,98810.56
2018-07-17T14:00:44.127Z,98817.08
2018-07-17T14:03:12.501Z,98818.86
2018-07-17T14:05:40.787Z,98818.06
2018-07-17T14:08:09.257Z,98827.27
2018-07-17T14:10:37.656Z,98829.66
2018-07-17T14:13:06.234Z,98829.77
2018-07-17T14:15:34.503Z,98823.64
2018-07-17T14:18:02.981Z,98817.92
2018-07-17T14:20:31.365Z,98809.17
2018-07-17T14:22:59.533Z,98801.54
2018-07-17T14:25:28.006Z,98798.55
2018-07-17T14:27:56.389Z,98796.86
2018-07-17T14:30:24.760Z,98792.12
2018-07-17T14:32:53.004Z,98800.56
2018-07-17T14:35:21.421Z,98794.58
2018-07-17T14:37:49.698Z,98790.67
2018-07-17T14:40:18.081Z,98798.44
2018-07-17T14:42:46.519Z,98797.09
2018-07-17T14:45:14.830Z,98789.23
2018-07-17T14:47:42.973Z,98782.72
2018-07-17T14:50:11.381Z,98761.90
2018-07-17T14:52:39.669Z,98753.06
2018-07-17T14:55:09.216Z,98748.66
2018-07-17T14:57:37.529Z,98743.75
2018-07-17T15:00:06.311Z,98742.28
2018-07-17T15:02:34.706Z,98739.44
2018-07-17T15:05:03.177Z,98746.94
2018-07-17T15:07:31.358Z,98746.70
2018-07-17T15:09:59.830Z,98750.84
2018-07-17T15:12:28.105Z,98751.10
2018-07-17T15:14:56.492Z,98756.77
2018-07-17T15:17:24.809Z,98754.92
2018-07-17T15:19:53.146Z,98735.63
2018-07-17T15:22:21.520Z,98729.82
2018-07-17T15:24:49.594Z,98724.61
2018-07-17T15:27:17.857Z,98728.65
2018-07-17T15:29:46.241Z,98726.29
2018-07-17T15:32:14.527Z,98729.05
2018-07-17T15:34:42.797Z,98734.87
2018-07-17T15:37:11.074Z,98729.16
2018-07-17T15:39:39.248Z,98735.69
2018-07-17T15:42:07.733Z,98736.28
2018-07-17T15:44:35.901Z,98729.22
2018-07-17T15:47:04.374Z,98718.25
2018-07-17T15:49:32.704Z,98717.56
2018-07-17T15:52:00.939Z,98717.44
2018-07-17T15:54:29.311Z,98714.08
2018-07-17T15:56:57.788Z,98711.09
2018-07-17T15:59:26.176Z,98712.19
2018-07-17T16:01:54.662Z,98713.63
2018-07-17T16:04:22.888Z,98719.01
2018-07-17T16:06:51.297Z,98719.87
2018-07-17T16:09:20.389Z,98717.77
2018-07-17T16:11:48.760Z,98732.53
2018-07-17T16:14:17.533Z,98732.27
2018-07-17T16:16:45.633Z,98722.98
2018-07-17T16:19:13.793Z,98719.98
2018-07-17T16:21:42.180Z,98728.65
2018-07-17T16:24:10.457Z,98717.36
2018-07-17T16:26:38.480Z,98715.05
2018-07-17T16:29:07.000Z,98711.52
2018-07-17T16:31:35.377Z,98718.63
2018-07-17T16:34:03.639Z,98720.21
2018-07-17T16:36:32.035Z,98712.97
2018-07-17T16:39:00.409Z,98727.64
2018-07-17T16:41:28.668Z,98722.87
2018-07-17T16:43:56.961Z,98731.91
2018-07-17T16:46:25.241Z,98726.02
2018-07-17T16:48:53.312Z,98733.78
2018-07-17T16:51:21.589Z,98729.30
2018-07-17T16:53:49.865Z,98738.10
2018-07-17T16:56:18.142Z,98742.91
2018-07-17T16:58:46.408Z,98745.63
2018-07-17T17:01:14.762Z,98743.11
2018-07-17T17:03:43.056Z,98736.02
2018-07-17T17:06:11.342Z,98743.11
2018-07-17T17:08:39.615Z,98742.80
2018-07-17T17:11:07.493Z,98752.88
2018-07-17T17:13:35.645Z,98755.41
2018-07-17T17:16:04.038Z,98758.03
2018-07-17T17:18:31.872Z,98764.34
2018-07-17T17:21:00.330Z,98767.72
2018-07-17T17:23:28.556Z,98773.37
2018-07-17T17:25:56.826Z,98759.44
2018-07-17T17:28:24.997Z,98761.70
2018-07-17T17:30:53.485Z,98759.07
2018-07-17T17:33:21.649Z,98758.84
2018-07-17T17:35:50.021Z,98761.50
2018-07-17T17:38:18.414Z,98759.98
2018-07-17T17:40:46.894Z,98751.64
2018-07-17T17:43:15.166Z,98753.58
2018-07-17T17:45:43.438Z,98755.72
2018-07-17T17:48:11.723Z,98754.31
2018-07-17T17:50:39.981Z,98754.30
2018-07-17T17:53:08.366Z,98760.12
2018-07-17T17:55:36.749Z,98753.71
2018-07-17T17:58:05.222Z,98758.02
2018-07-17T18:00:33.407Z,98758.02
2018-07-17T18:03:01.773Z,98756.82
2018-07-17T18:05:29.936Z,98757.21
2018-07-17T18:07:58.434Z,98754.67
2018-07-17T18:10:26.610Z,98753.69
2018-07-17T18:12:54.986Z,98754.88
2018-07-17T18:15:23.255Z,98760.45
2018-07-17T18:17:51.538Z,98754.21
2018-07-17T18:20:19.474Z,98750.78
2018-07-17T18:22:47.540Z,98749.66
2018-07-17T18:25:15.944Z,98758.50
2018-07-17T18:27:43.877Z,98758.84
2018-07-17T18:30:12.292Z,98753.98
2018-07-17T18:32:40.573Z,98753.84
2018-07-17T18:35:08.957Z,98751.55
2018-07-17T18:37:37.317Z,98756.69
2018-07-17T18:40:05.778Z,98762.56
2018-07-17T18:42:34.085Z,98762.22
2018-07-17T18:45:02.502Z,98756.84
2018-07-17T18:47:31.664Z,98767.19
2018-07-17T18:52:29.274Z,98764.55
2018-07-17T18:54:57.439Z,98764.09
2018-07-17T18:57:25.899Z,98766.51
2018-07-17T18:59:54.049Z,98761.56
2018-07-17T19:02:23.280Z,98762.77
2018-07-17T19:04:51.532Z,98754.83
2018-07-17T19:07:19.805Z,98757.35
2018-07-17T19:09:48.295Z,98750.30
2018-07-17T19:12:16.571Z,98750.08
2018-07-17T19:14:44.451Z,98747.39
2018-07-17T19:17:12.805Z,98750.24
2018-07-17T19:19:41.064Z,98750.66
2018-07-17T19:22:09.463Z,98749.72
2018-07-17T19:24:37.547Z,98745.63
2018-07-17T19:27:05.942Z,98750.16
2018-07-17T19:29:34.069Z,98744.98
2018-07-17T19:32:02.588Z,98745.66
2018-07-17T19:34:31.774Z,98741.04
2018-07-17T19:37:00.401Z,98741.09
2018-07-17T19:39:28.649Z,98738.72
2018-07-17T19:41:56.885Z,98735.58
2018-07-17T19:44:25.265Z,98735.38
2018-07-17T19:46:53.541Z,98733.11
2018-07-17T19:49:21.921Z,98734.17
2018-07-17T19:51:50.203Z,98731.28
2018-07-17T19:54:18.374Z,98741.11
2018-07-17T19:56:46.641Z,98737.20
2018-07-17T19:59:14.918Z,98730.44
2018-07-17T20:01:43.397Z,98727.75
2018-07-17T20:04:11.674Z,98728.05
2018-07-17T20:06:40.062Z,98725.63
2018-07-17T20:09:08.786Z,98721.63
2018-07-17T20:11:37.123Z,98729.23
2018-07-17T20:14:05.481Z,98724.98
2018-07-17T20:16:33.776Z,98727.86
2018-07-17T20:19:02.050Z,98728.36
2018-07-17T20:21:30.317Z,98729.56
2018-07-17T20:23:58.594Z,98733.68
2018-07-17T20:26:26.977Z,98731.72
2018-07-17T20:28:55.154Z,98726.73
2018-07-17T20:31:23.432Z,98725.77
2018-07-17T20:33:51.853Z,98721.93
2018-07-17T20:36:19.929Z,98723.92
2018-07-17T20:38:48.359Z,98724.41
2018-07-17T20:41:16.738Z,98722.52
2018-07-17T20:43:45.101Z,98727.09
2018-07-17T20:46:13.390Z,98719.15
2018-07-17T20:48:41.248Z,98719.34
2018-07-17T20:51:10.085Z,98718.34
2018-07-17T20:53:38.205Z,98720.45
2018-07-17T20:56:06.601Z,98728.74
2018-07-17T20:58:34.771Z,98720.27
2018-07-17T21:01:03.044Z,98725.98
2018-07-17T21:03:31.222Z,98726.88
2018-07-17T21:05:59.694Z,98730.09
2018-07-17T21:08:27.865Z,98727.13
2018-07-17T21:10:56.045Z,98726.05
2018-07-17T21:13:24.113Z,98731.62
2018-07-17T21:15:52.491Z,98735.06
2018-07-17T21:18:20.780Z,98739.53
2018-07-17T21:20:48.933Z,98746.39
2018-07-17T21:23:17.218Z,98744.37
2018-07-17T21:25:45.486Z,98741.34
2018-07-17T21:28:13.870Z,98751.77
2018-07-17T21:30:42.243Z,98745.71
2018-07-17T21:33:10.519Z,98744.36
2018-07-17T21:35:38.694Z,98740.19
2018-07-17T21:38:06.966Z,98746.70
2018-07-17T21:40:35.245Z,98753.11
2018-07-17T21:43:03.413Z,98746.55
2018-07-17T21:45:31.794Z,98748.23
2018-07-17T21:47:59.966Z,98744.54
2018-07-17T21:50:28.448Z,98743.69
2018-07-17T21:52:56.624Z,98744.00
2018-07-17T21:55:25.025Z,98738.25
2018-07-17T21:57:53.275Z,98744.30
2018-07-17T22:00:21.554Z,98734.87
2018-07-17T22:02:50.022Z,98735.66
2018-07-17T22:05:18.309Z,98727.42
2018-07-17T22:07:46.786Z,98728.91
2018-07-17T22:10:15.155Z,98720.11
2018-07-17T22:12:43.538Z,98726.13
2018-07-17T22:15:11.870Z,98720.22
2018-07-17T22:17:40.185Z,98725.38
2018-07-17T22:20:08.430Z,98729.21
2018-07-17T22:22:36.845Z,98728.31
2018-07-17T22:25:05.026Z,98728.25
2018-07-17T22:27:33.502Z,98723.03
2018-07-17T22:30:01.779Z,98724.47
2018-07-17T22:32:30.053Z,98726.08
2018-07-17T22:34:58.234Z,98714.74
2018-07-17T22:37:26.604Z,98715.44
2018-07-17T22:39:54.879Z,98717.73
2018-07-17T22:42:23.249Z,98714.95
2018-07-17T22:44:51.439Z,98717.93
2018-07-17T22:47:19.695Z,98711.52
2018-07-17T22:49:47.778Z,98712.31
2018-07-17T22:52:16.019Z,98705.91
2018-07-17T22:54:44.330Z,98702.31
2018-07-17T22:57:12.383Z,98708.69
2018-07-17T22:59:40.670Z,98711.08
2018-07-17T23:02:09.091Z,98712.06
2018-07-17T23:04:36.922Z,98717.88
2018-07-17T23:07:05.191Z,98718.88
2018-07-17T23:09:33.466Z,98730.78
2018-07-17T23:12:01.816Z,98730.18
2018-07-17T23:14:30.121Z,98737.28
2018-07-17T23:16:58.386Z,98734.59
2018-07-17T23:19:26.342Z,98734.36
2018-07-17T23:21:54.530Z,98742.42
2018-07-17T23:24:22.705Z,98750.66
2018-07-17T23:26:50.983Z,98756.27
2018-07-17T23:29:19.367Z,98753.73
2018-07-17T23:31:47.629Z,98746.28
2018-07-17T23:34:15.924Z,98736.34
2018-07-17T23:36:44.202Z,98730.59
2018-07-17T23:39:12.462Z,98732.39
2018-07-17T23:41:41.003Z,98735.47
2018-07-17T23:44:09.322Z,98731.84
2018-07-17T23:46:37.809Z,98728.27
2018-07-17T23:49:06.070Z,98726.86
2018-07-17T23:51:34.446Z,98729.55
2018-07-17T23:54:02.739Z,98735.47
2018-07-17T23:56:31.098Z,98726.38
2018-07-17T23:58:59.490Z,98726.47
